TLSO2: Arkansas River, Tulsa, OK

Data processed at Fri Jan 05 2018 23:47


All information presented herein is the property of the government of the United States of America and may be revised or deleted at any time without prior notice.
Dissemination of this information without the expressed written consent of the Public Affairs Office, Tulsa District U.S. Army Corps of Engineers is strictly prohibited.
These data are gathered electronically and, as presented, have not undergone any form of quality control. These data are not guaranteed to be valid or correct.
Go to home page.
Go to station list.

Upstream stations:

Downstream station:
Previous Day
Next Day
Current Day
    
SHEF ID:       TLSO2     Arkansas River at Tulsa, OK
STATION TYPE:  

               PRECIP     STAGE  STAGE(2)  RIV-FLOW  WTR-TEMP   DIS-OXY  BAT-LOAD
                   in        ft        ft       cfs         F      mg/l      volt
              Ccp-Rev   Ccp-Rev   Ccp-Rev   Ccp-Rev   Ccp-Rev   Ccp-Rev   Ccp-Rev
(US/Central)
01/03 00:00      0.00      1.56      ----       798     37.54     12.31     12.49
01/03 01:00      0.00      1.48      ----       690     36.91     12.37     12.49
01/03 02:00      0.00      1.40      ----       592     36.50     12.40     12.49
01/03 03:00      0.00      1.33      ----       514     36.05     12.46     12.41
01/03 04:00      0.00      1.26      ----       444     35.64     12.50     12.41
01/03 05:00      0.00      1.23      ----       415     35.20     12.53     12.41
01/03 06:00      0.00      1.20      ----       388     34.84     12.55     12.41
01/03 07:00      0.00      1.16      ----       354     34.45     12.60     12.33
01/03 08:00      0.00      1.10      ----       306     34.02     12.69     12.33
01/03 09:00      0.00      1.10      ----       306     33.84     12.78     12.81
01/03 10:00      0.00      1.07      ----       284     33.96     12.99     14.08
01/03 11:00      0.00      1.06      ----       277     34.48     13.19     14.56
01/03 12:00      0.00      0.99      ----       230     35.17     13.44     14.08
01/03 13:00      0.00      1.01      ----       243     35.98     13.59     14.00
01/03 14:00      0.00      1.36      ----       547     36.79     13.63     13.05
01/03 15:00      0.00      2.16      ----      1971     36.63     13.35     13.05
01/03 16:00      0.00      2.39      ----      2617     37.98     13.08     13.21
01/03 17:00      0.00      2.34      ----      2466     38.62     12.75     12.97
01/03 18:00      0.00      2.19      ----      2049     39.15     12.44     12.73
01/03 19:00      0.00      2.03      ----      1658     39.27     12.37     12.65
01/03 20:00      0.00      1.86      ----      1299     39.02     12.41     12.65
01/03 21:00      0.00      1.73      ----      1062     38.86     12.40     12.65
01/03 22:00      0.00      1.62      ----       886     38.59     12.42     12.57
01/03 23:00      0.00      1.75      ----      1097     38.34     12.48     12.57